Time;durP1;ratioP1;P1;durP2;ratioP2;P2;SDS_P1;SDS_P2;PMS_P1;PMS_P2;Temp;Humidity;BMP_temperature;BMP_pressure;BME280_temperature;BME280_humidity;BME280_pressure;Samples;Min_cycle;Max_cycle;Signal;HPM_P1;HPM_P2
2022/03/07 00:01:47;;;;;;;31.98;16.80;;;;;;;0.16;62.69;100458.59;5114937;28;20066;-75
2022/03/07 00:04:17;;;;;;;31.77;16.73;;;;;;;0.26;62.26;100450.56;5114499;28;20090;-76
2022/03/07 00:06:46;;;;;;;30.45;15.88;;;;;;;0.15;62.91;100456.88;5114603;28;20074;-76
2022/03/07 00:09:16;;;;;;;31.65;16.63;;;;;;;0.22;62.42;100463.78;5114434;28;20054;-76
2022/03/07 00:11:45;;;;;;;34.33;16.88;;;;;;;0.22;62.28;100463.78;5114612;28;20041;-76
2022/03/07 00:14:13;;;;;;;31.83;15.40;;;;;;;0.32;61.95;100460.13;5114364;28;20400;-77
2022/03/07 00:16:42;;;;;;;30.38;16.63;;;;;;;0.29;61.54;100454.94;5113474;28;20097;-77
2022/03/07 00:19:10;;;;;;;27.77;15.75;;;;;;;0.19;62.29;100453.28;5114014;28;20489;-77
2022/03/07 00:21:39;;;;;;;31.08;16.33;;;;;;;0.14;62.33;100452.50;5114052;28;20125;-76
2022/03/07 00:24:09;;;;;;;30.25;15.77;;;;;;;0.10;62.41;100453.47;5114259;28;20504;-76
2022/03/07 00:26:38;;;;;;;28.88;15.95;;;;;;;0.13;62.06;100458.66;5113890;28;20463;-76
2022/03/07 00:29:11;;;;;;;29.67;15.90;;;;;;;0.05;62.51;100463.13;5114302;28;20043;-76
2022/03/07 00:31:39;;;;;;;29.52;16.20;;;;;;;0.07;62.35;100469.22;5113868;28;20174;-76
2022/03/07 00:34:07;;;;;;;29.13;15.70;;;;;;;0.02;62.62;100479.78;5113983;28;20092;-76
2022/03/07 00:36:35;;;;;;;30.35;16.00;;;;;;;0.18;62.10;100475.19;5113749;28;20048;-77
2022/03/07 00:39:04;;;;;;;30.20;15.57;;;;;;;0.12;62.32;100477.91;5113959;28;20044;-76
2022/03/07 00:41:32;;;;;;;28.73;15.68;;;;;;;0.20;62.23;100486.53;5113913;28;20044;-76
2022/03/07 00:44:01;;;;;;;30.02;15.82;;;;;;;0.22;62.13;100485.63;5113545;28;20101;-77
2022/03/07 00:46:30;;;;;;;27.50;15.23;;;;;;;0.24;62.17;100478.59;5113593;28;20078;-78
2022/03/07 00:48:58;;;;;;;32.10;16.33;;;;;;;0.27;61.61;100483.78;5113785;28;20044;-78
2022/03/07 00:51:27;;;;;;;25.80;15.18;;;;;;;0.41;61.43;100473.09;5113536;28;20477;-78
2022/03/07 00:53:55;;;;;;;29.17;16.23;;;;;;;0.22;62.18;100477.75;5113451;28;20054;-78
2022/03/07 00:56:23;;;;;;;29.05;15.98;;;;;;;0.36;61.60;100477.53;5113440;28;20437;-78
2022/03/07 00:58:52;;;;;;;31.65;16.10;;;;;;;0.13;62.79;100474.41;5113737;28;20047;-76
2022/03/07 01:01:21;;;;;;;31.02;16.60;;;;;;;0.09;62.72;100476.16;5113690;28;20042;-76
2022/03/07 01:03:51;;;;;;;29.55;16.08;;;;;;;0.18;62.45;100473.41;5113556;28;20071;-76
2022/03/07 01:06:19;;;;;;;29.42;15.55;;;;;;;0.02;62.60;100471.94;5113717;28;20039;-75
2022/03/07 01:08:47;;;;;;;26.15;14.75;;;;;;;0.13;62.72;100474.41;5112989;28;20043;-76
2022/03/07 01:11:16;;;;;;;31.05;16.63;;;;;;;0.10;62.70;100477.06;5113560;28;20044;-78
2022/03/07 01:13:45;;;;;;;28.90;16.40;;;;;;;0.05;62.66;100478.88;5112815;28;20128;-79
2022/03/07 01:16:13;;;;;;;29.95;15.77;;;;;;;-0.05;63.20;100479.00;5113526;28;20050;-79
2022/03/07 01:18:43;;;;;;;29.33;15.18;;;;;;;0.10;62.81;100471.81;5112912;28;20166;-81
2022/03/07 01:21:13;;;;;;;29.08;15.52;;;;;;;0.09;62.97;100464.81;5113056;28;20143;-81
2022/03/07 01:23:42;;;;;;;31.35;15.93;;;;;;;-0.04;63.50;100467.63;5112908;28;20079;-81
2022/03/07 01:26:10;;;;;;;30.75;16.25;;;;;;;-0.08;63.30;100463.31;5113428;28;20036;-79
2022/03/07 01:28:39;;;;;;;29.55;15.85;;;;;;;-0.01;63.38;100458.81;5115495;28;20044;-79
2022/03/07 01:31:08;;;;;;;28.90;16.20;;;;;;;-0.01;62.84;100456.22;5117546;28;20044;-79
2022/03/07 01:33:36;;;;;;;29.65;15.30;;;;;;;-0.08;62.81;100465.06;5117236;28;20048;-77
2022/03/07 01:36:06;;;;;;;30.88;15.50;;;;;;;-0.16;63.32;100467.78;5117523;28;20035;-77
2022/03/07 01:38:35;;;;;;;27.98;14.70;;;;;;;-0.21;63.35;100463.47;5116971;28;20442;-77
2022/03/07 01:41:03;;;;;;;27.95;14.00;;;;;;;-0.10;63.42;100461.56;5117433;28;20050;-77
2022/03/07 01:43:31;;;;;;;27.92;15.10;;;;;;;-0.15;63.72;100466.03;5116833;28;20078;-78
2022/03/07 01:46:00;;;;;;;29.23;15.75;;;;;;;-0.19;64.08;100467.84;5099325;28;20481;-77
2022/03/07 01:48:28;;;;;;;31.98;15.73;;;;;;;-0.22;63.96;100462.59;5116885;28;20097;-77
2022/03/07 01:50:56;;;;;;;29.85;15.75;;;;;;;-0.28;64.09;100457.47;5117251;28;20472;-77
2022/03/07 01:53:26;;;;;;;30.92;16.50;;;;;;;0.01;63.36;100453.59;5116939;28;20032;-76
2022/03/07 01:55:57;;;;;;;28.67;15.75;;;;;;;0.19;62.02;100454.19;5099422;28;20093;-76
2022/03/07 01:58:25;;;;;;;29.48;15.30;;;;;;;0.26;62.12;100455.81;5117053;28;20043;-77
2022/03/07 02:00:53;;;;;;;27.17;14.60;;;;;;;0.24;61.85;100456.75;5117098;28;20427;-77
2022/03/07 02:03:21;;;;;;;26.30;14.27;;;;;;;0.16;61.84;100458.59;5117011;28;20491;-74
2022/03/07 02:05:50;;;;;;;25.98;14.90;;;;;;;0.08;62.33;100460.47;5116362;28;20070;-76
2022/03/07 02:08:18;;;;;;;25.42;14.63;;;;;;;-0.04;62.82;100459.75;5116530;28;20048;-75
2022/03/07 02:10:48;;;;;;;28.75;15.63;;;;;;;-0.09;63.37;100463.34;5116332;28;20570;-76
2022/03/07 02:13:18;;;;;;;29.52;15.25;;;;;;;-0.07;63.00;100461.56;5116844;28;20441;-76
2022/03/07 02:15:53;;;;;;;31.35;16.00;;;;;;;-0.03;63.16;100469.34;5116445;28;20070;-74
2022/03/07 02:18:22;;;;;;;28.33;15.85;;;;;;;0.00;62.44;100460.59;5116779;28;20118;-74
2022/03/07 02:20:57;;;;;;;27.55;14.82;;;;;;;-0.02;62.47;100454.47;5116074;28;20048;-74
2022/03/07 02:23:26;;;;;;;28.02;15.82;;;;;;;-0.03;62.53;100451.00;5116606;28;20049;-75
2022/03/07 02:25:54;;;;;;;26.00;15.00;;;;;;;-0.11;63.25;100455.47;5116563;28;20044;-74
2022/03/07 02:28:23;;;;;;;30.08;16.05;;;;;;;-0.29;64.02;100455.69;5116458;28;20050;-74
2022/03/07 02:30:51;;;;;;;26.63;14.73;;;;;;;-0.29;64.81;100455.69;5116187;28;20063;-75
2022/03/07 02:33:20;;;;;;;27.75;15.13;;;;;;;-0.39;64.93;100448.84;5116370;28;20074;-75
2022/03/07 02:35:48;;;;;;;28.63;15.35;;;;;;;-0.25;64.52;100443.44;5115696;28;20040;-75
2022/03/07 02:38:16;;;;;;;27.30;15.55;;;;;;;-0.37;64.53;100436.63;5116406;28;20043;-75
2022/03/07 02:40:46;;;;;;;28.08;15.18;;;;;;;-0.29;64.44;100445.22;5115020;28;20046;-75
2022/03/07 02:43:17;;;;;;;29.70;14.65;;;;;;;-0.05;63.88;100444.03;5116329;28;20067;-75
2022/03/07 02:45:47;;;;;;;30.05;15.48;;;;;;;-0.06;63.40;100442.31;5115610;28;20035;-75
2022/03/07 02:48:15;;;;;;;28.20;15.70;;;;;;;-0.28;64.31;100452.22;5116148;28;20043;-75
2022/03/07 02:50:45;;;;;;;29.20;15.88;;;;;;;-0.49;65.18;100449.84;5115838;28;20059;-75
2022/03/07 02:53:13;;;;;;;28.40;15.18;;;;;;;-0.62;66.21;100457.84;5115709;28;20047;-75
2022/03/07 02:55:42;;;;;;;29.23;15.27;;;;;;;-0.69;66.63;100464.03;5115654;28;20035;-75
2022/03/07 02:58:12;;;;;;;27.52;14.90;;;;;;;-0.77;66.95;100463.28;5115877;28;20437;-76
2022/03/07 03:00:40;;;;;;;31.70;14.95;;;;;;;-0.79;67.29;100469.41;5097294;28;20075;-76
2022/03/07 03:03:09;;;;;;;29.40;16.10;;;;;;;-0.56;66.42;100471.78;5115623;28;20067;-76
2022/03/07 03:05:37;;;;;;;28.70;15.38;;;;;;;-0.50;65.93;100471.69;5115520;28;20127;-75
2022/03/07 03:08:06;;;;;;;26.65;15.38;;;;;;;-0.48;65.97;100470.81;5115764;28;20035;-76
2022/03/07 03:10:34;;;;;;;27.25;14.77;;;;;;;-0.41;65.70;100463.72;5115405;28;20044;-76
2022/03/07 03:13:02;;;;;;;27.05;15.00;;;;;;;-0.22;64.98;100473.09;5115668;28;20122;-75
2022/03/07 03:15:32;;;;;;;26.42;14.65;;;;;;;-0.24;64.92;100469.63;5115260;28;20092;-77
2022/03/07 03:18:03;;;;;;;28.45;15.68;;;;;;;-0.31;65.26;100470.59;5115526;28;20067;-76
2022/03/07 03:20:31;;;;;;;28.95;14.88;;;;;;;-0.27;65.18;100471.44;5115464;28;20408;-78
2022/03/07 03:22:59;;;;;;;33.80;15.52;;;;;;;-0.38;65.68;100472.44;5115302;28;20167;-76
2022/03/07 03:25:29;;;;;;;28.63;15.25;;;;;;;-0.44;66.00;100474.25;5115614;28;20047;-76
2022/03/07 03:27:57;;;;;;;28.60;15.57;;;;;;;-0.46;65.92;100474.28;5115023;28;20043;-76
2022/03/07 03:30:25;;;;;;;30.88;15.90;;;;;;;-0.40;65.39;100475.94;5115673;28;20048;-76
2022/03/07 03:32:58;;;;;;;31.65;16.45;;;;;;;-0.51;65.72;100476.06;5114786;28;20040;-76
2022/03/07 03:35:27;;;;;;;31.88;16.15;;;;;;;-0.49;65.20;100483.91;5115380;28;20096;-76
2022/03/07 03:37:58;;;;;;;31.92;15.75;;;;;;;-0.49;65.63;100489.16;5114876;28;20039;-76
2022/03/07 03:40:26;;;;;;;30.13;16.05;;;;;;;-0.49;65.40;100491.78;5115131;28;20039;-75
2022/03/07 03:42:54;;;;;;;28.80;15.73;;;;;;;-0.53;65.96;100490.94;5114798;28;20485;-76
2022/03/07 03:45:23;;;;;;;30.10;16.60;;;;;;;-0.54;65.35;100490.97;5115047;28;20491;-76
2022/03/07 03:47:51;;;;;;;26.38;15.27;;;;;;;-0.52;66.01;100489.19;5114389;28;20052;-78
2022/03/07 03:50:21;;;;;;;29.50;15.77;;;;;;;-0.50;65.78;100496.16;5114691;28;20036;-77
2022/03/07 03:52:49;;;;;;;29.35;15.75;;;;;;;-0.43;65.34;100489.09;5113588;28;20062;-77
2022/03/07 03:55:18;;;;;;;29.10;16.35;;;;;;;-0.49;65.69;100491.78;5114397;28;20035;-77
2022/03/07 03:57:46;;;;;;;30.13;16.02;;;;;;;-0.37;65.10;100489.91;5114409;28;20040;-77
2022/03/07 04:00:17;;;;;;;31.67;16.48;;;;;;;-0.49;65.66;100489.16;5114427;28;20052;-76
2022/03/07 04:02:46;;;;;;;32.10;16.10;;;;;;;-0.48;65.90;100494.41;5114394;28;20036;-76
2022/03/07 04:05:16;;;;;;;27.95;15.88;;;;;;;-0.45;65.55;100483.88;5114705;28;20083;-76
2022/03/07 04:07:46;;;;;;;31.63;16.27;;;;;;;-0.62;65.87;100489.28;5114261;28;20043;-76
2022/03/07 04:10:14;;;;;;;30.95;16.70;;;;;;;-0.41;65.52;100490.81;5114605;28;20059;-74
2022/03/07 04:12:43;;;;;;;29.92;16.48;;;;;;;-0.46;65.79;100490.00;5114087;28;20039;-77
2022/03/07 04:15:15;;;;;;;30.75;17.35;;;;;;;-0.61;66.01;100492.78;5114366;28;20067;-75
2022/03/07 04:17:44;;;;;;;34.00;16.52;;;;;;;-0.64;66.55;100491.06;5114216;28;20089;-75
2022/03/07 04:20:13;;;;;;;28.33;16.35;;;;;;;-0.59;66.47;100489.25;5113814;28;20057;-75
2022/03/07 04:22:42;;;;;;;31.23;16.52;;;;;;;-0.52;65.97;100490.06;5114107;28;20397;-77
2022/03/07 04:25:12;;;;;;;32.80;16.52;;;;;;;-0.77;66.59;100485.97;5114437;28;20057;-75
2022/03/07 04:27:40;;;;;;;30.65;16.52;;;;;;;-0.75;67.00;100484.22;5113792;28;20054;-76
2022/03/07 04:30:10;;;;;;;31.60;17.05;;;;;;;-0.76;67.15;100480.72;5113828;28;20074;-74
2022/03/07 04:32:38;;;;;;;34.45;16.75;;;;;;;-0.65;66.45;100486.72;5114088;28;20082;-77
2022/03/07 04:35:09;;;;;;;30.77;16.65;;;;;;;-0.60;66.51;100489.28;5113938;28;20123;-78
2022/03/07 04:37:40;;;;;;;30.45;17.05;;;;;;;-0.64;66.71;100495.44;5113989;28;20032;-79
2022/03/07 04:40:11;;;;;;;32.72;17.70;;;;;;;-0.63;66.64;100491.94;5113883;28;20040;-77
2022/03/07 04:42:42;;;;;;;30.83;16.48;;;;;;;-0.66;66.88;100492.84;5113298;28;20544;-79
2022/03/07 04:45:11;;;;;;;33.95;17.88;;;;;;;-0.55;66.34;100486.63;5114045;28;20400;-78
2022/03/07 04:47:40;;;;;;;32.50;17.35;;;;;;;-0.62;66.44;100491.91;5113616;28;20071;-79
2022/03/07 04:50:09;;;;;;;31.20;17.10;;;;;;;-0.72;66.99;100490.28;5113803;28;20051;-79
2022/03/07 04:52:38;;;;;;;34.35;17.60;;;;;;;-0.75;67.03;100487.69;5113475;28;20067;-79
2022/03/07 04:55:08;;;;;;;32.45;17.35;;;;;;;-0.75;67.10;100497.31;5113387;28;20043;-79
2022/03/07 04:57:38;;;;;;;35.58;17.98;;;;;;;-0.67;66.46;100491.13;5113767;28;20046;-79
2022/03/07 05:00:11;;;;;;;34.90;18.10;;;;;;;-0.70;66.73;100485.88;5113935;28;20067;-78
2022/03/07 05:02:39;;;;;;;31.42;16.60;;;;;;;-0.57;66.09;100491.00;5113021;28;20439;-79
2022/03/07 05:05:09;;;;;;;32.67;16.98;;;;;;;-0.61;66.62;100484.91;5113684;28;20474;-78
2022/03/07 05:07:37;;;;;;;32.50;16.83;;;;;;;-0.68;66.79;100485.88;5113637;28;20476;-79
2022/03/07 05:10:06;;;;;;;33.90;17.38;;;;;;;-0.60;66.26;100481.41;5113671;28;20039;-76
2022/03/07 05:12:34;;;;;;;30.23;16.92;;;;;;;-0.60;66.06;100477.03;5113549;28;20048;-72
2022/03/07 05:15:03;;;;;;;35.83;18.10;;;;;;;-0.74;66.76;100481.56;5113170;28;20039;-72
2022/03/07 05:17:41;;;;;;;32.83;17.30;;;;;;;-0.67;66.53;100483.25;5113407;28;20392;-72
2022/03/07 05:20:11;;;;;;;31.40;17.45;;;;;;;-0.60;66.22;100486.66;5112950;28;20043;-72
2022/03/07 05:22:39;;;;;;;33.13;17.63;;;;;;;-0.78;67.31;100482.47;5113258;28;20189;-75
2022/03/07 05:25:09;;;;;;;32.80;17.52;;;;;;;-0.61;66.76;100484.91;5113672;28;20074;-76
2022/03/07 05:27:38;;;;;;;33.88;17.40;;;;;;;-0.63;66.44;100489.31;5113481;28;20174;-76
2022/03/07 05:30:09;;;;;;;35.40;18.38;;;;;;;-0.81;67.58;100487.75;5113406;28;20048;-76
2022/03/07 05:32:38;;;;;;;33.60;18.27;;;;;;;-0.74;67.24;100489.44;5113365;28;20119;-75
2022/03/07 05:35:08;;;;;;;30.88;17.75;;;;;;;-0.69;67.10;100486.75;5113293;28;20123;-75
2022/03/07 05:37:36;;;;;;;33.72;17.95;;;;;;;-0.79;67.42;100488.59;5113227;28;20442;-77
2022/03/07 05:40:07;;;;;;;35.15;17.90;;;;;;;-0.80;67.75;100493.84;5113053;28;20044;-78
2022/03/07 05:42:37;;;;;;;34.63;18.20;;;;;;;-0.74;67.58;100494.69;5112979;28;20047;-78
2022/03/07 05:45:08;;;;;;;33.42;18.40;;;;;;;-0.47;66.58;100493.50;5112927;28;20067;-77
2022/03/07 05:47:36;;;;;;;34.80;17.85;;;;;;;-0.56;66.72;100500.59;5113020;28;20044;-78
2022/03/07 05:50:08;;;;;;;34.83;17.27;;;;;;;-0.56;66.53;100493.63;5112815;28;20043;-75
2022/03/07 05:52:37;;;;;;;37.45;18.70;;;;;;;-0.40;66.57;100500.41;5112849;28;20039;-74
2022/03/07 05:55:07;;;;;;;38.95;19.42;;;;;;;-0.33;65.93;100494.22;5112395;28;20075;-74
2022/03/07 05:57:38;;;;;;;34.88;18.25;;;;;;;-0.50;66.33;100497.91;5112785;28;20503;-76
2022/03/07 06:00:08;;;;;;;34.03;18.80;;;;;;;-0.48;67.20;100497.03;5112728;28;20039;-74
2022/03/07 06:02:39;;;;;;;33.28;18.27;;;;;;;-0.34;66.54;100500.34;5113087;28;20044;-75
2022/03/07 06:05:10;;;;;;;35.22;18.88;;;;;;;-0.19;65.55;100496.69;5112873;28;20139;-77
2022/03/07 06:07:39;;;;;;;38.33;20.35;;;;;;;-0.31;66.70;100494.19;5112879;28;20039;-72
2022/03/07 06:10:08;;;;;;;37.60;19.25;;;;;;;-0.34;66.34;100499.47;5112569;28;20128;-76
2022/03/07 06:12:36;;;;;;;35.30;18.38;;;;;;;-0.40;66.53;100499.53;5112683;28;20040;-78
2022/03/07 06:15:06;;;;;;;36.63;18.98;;;;;;;-0.34;66.79;100504.72;5113812;28;20246;-77
2022/03/07 06:17:35;;;;;;;36.92;17.85;;;;;;;-0.28;66.62;100507.28;5116290;28;20439;-77
2022/03/07 06:20:06;;;;;;;38.78;19.00;;;;;;;-0.22;66.78;100499.31;5116573;28;20069;-77
2022/03/07 06:22:36;;;;;;;34.83;17.90;;;;;;;-0.19;65.99;100509.78;5096573;28;20512;-77
2022/03/07 06:25:05;;;;;;;35.20;18.20;;;;;;;-0.21;65.78;100516.78;5096234;28;20068;-77
2022/03/07 06:27:34;;;;;;;31.65;17.95;;;;;;;-0.16;65.81;100514.13;5096142;28;20051;-76
2022/03/07 06:30:03;;;;;;;38.10;19.00;;;;;;;0.01;65.45;100506.03;5096047;28;20044;-77
2022/03/07 06:32:32;;;;;;;32.20;18.52;;;;;;;0.26;64.38;100512.69;5096240;28;20457;-76
2022/03/07 06:35:00;;;;;;;33.28;17.23;;;;;;;0.19;63.85;100511.00;5095736;28;20078;-76
2022/03/07 06:37:28;;;;;;;34.38;18.55;;;;;;;0.10;63.74;100516.41;5095795;28;20036;-76
2022/03/07 06:40:00;;;;;;;35.40;19.05;;;;;;;-0.05;64.28;100513.09;5095832;28;20042;-76
2022/03/07 06:42:28;;;;;;;33.85;18.95;;;;;;;-0.02;64.20;100518.28;5095877;28;20072;-77
2022/03/07 06:44:56;;;;;;;37.42;19.17;;;;;;;0.15;63.42;100510.19;5095479;28;20047;-77
2022/03/07 06:47:25;;;;;;;35.40;19.38;;;;;;;-0.15;64.34;100516.72;5096257;28;20458;-76
2022/03/07 06:49:56;;;;;;;34.25;18.52;;;;;;;0.03;64.61;100520.00;5095489;28;20044;-80
2022/03/07 06:52:25;;;;;;;32.58;17.50;;;;;;;0.40;62.68;100518.59;5095821;28;20130;-80
2022/03/07 06:54:53;;;;;;;34.97;19.25;;;;;;;0.26;63.44;100518.78;5093935;28;20048;-79
2022/03/07 06:57:23;;;;;;;36.92;18.38;;;;;;;0.27;64.20;100525.75;5095395;28;20036;-80
2022/03/07 06:59:51;;;;;;;32.50;17.85;;;;;;;0.36;63.82;100519.53;5095414;28;20115;-80
2022/03/07 07:02:19;;;;;;;40.03;18.92;;;;;;;0.56;62.72;100533.22;5095578;28;20123;-81
2022/03/07 07:04:48;;;;;;;37.05;20.00;;;;;;;0.53;62.67;100522.78;5095538;28;20036;-81
2022/03/07 07:07:16;;;;;;;34.42;17.48;;;;;;;0.56;62.28;100522.72;5095412;28;20404;-73
2022/03/07 07:09:46;;;;;;;32.47;18.23;;;;;;;0.49;62.85;100525.47;5095276;28;20055;-76
2022/03/07 07:12:14;;;;;;;33.90;18.42;;;;;;;0.60;62.49;100522.69;5095036;28;20051;-75
2022/03/07 07:14:43;;;;;;;33.10;18.58;;;;;;;0.60;62.33;100517.44;5095303;28;20499;-72
2022/03/07 07:17:11;;;;;;;36.17;18.27;;;;;;;0.69;62.69;100528.66;5094864;28;20534;-73
2022/03/07 07:19:40;;;;;;;34.42;17.65;;;;;;;0.79;61.84;100537.28;5097298;28;20056;-72
2022/03/07 07:22:08;;;;;;;37.78;19.33;;;;;;;0.79;61.86;100532.88;5111965;28;20121;-73
2022/03/07 07:24:36;;;;;;;35.83;18.38;;;;;;;0.92;61.79;100530.06;5115624;28;20434;-72
2022/03/07 07:27:05;;;;;;;34.70;19.00;;;;;;;0.95;61.39;100527.38;5115190;28;20447;-72
2022/03/07 07:29:34;;;;;;;34.85;18.13;;;;;;;0.94;60.98;100525.63;5115212;28;20040;-72
2022/03/07 07:32:04;;;;;;;34.97;18.65;;;;;;;1.01;60.93;100532.53;5114918;28;20459;-73
2022/03/07 07:34:32;;;;;;;36.08;19.45;;;;;;;0.96;61.39;100535.22;5115112;28;20046;-72
2022/03/07 07:37:01;;;;;;;36.13;18.08;;;;;;;0.99;61.07;100540.44;5114793;28;20397;-72
2022/03/07 07:39:40;;;;;;;29.30;17.10;;;;;;;0.93;61.09;100537.91;5115401;28;20040;-72
2022/03/07 07:42:08;;;;;;;33.95;17.45;;;;;;;0.94;61.87;100549.28;5115098;28;20035;-73
2022/03/07 07:44:37;;;;;;;31.85;17.83;;;;;;;0.97;61.27;100539.59;5096471;28;20077;-75
2022/03/07 07:47:07;;;;;;;33.60;18.33;;;;;;;1.00;61.11;100544.81;5114565;28;20039;-78
2022/03/07 07:49:36;;;;;;;33.03;18.23;;;;;;;0.99;61.03;100547.47;5114834;28;20409;-71
2022/03/07 07:52:04;;;;;;;40.88;18.73;;;;;;;1.03;60.60;100544.75;5114751;28;20082;-72
2022/03/07 07:54:33;;;;;;;34.20;18.60;;;;;;;1.03;60.51;100543.88;5114621;28;20047;-71
2022/03/07 07:57:05;;;;;;;41.95;18.92;;;;;;;1.05;60.62;100558.72;5114542;28;20043;-72
2022/03/07 07:59:34;;;;;;;31.48;18.58;;;;;;;1.11;60.04;100563.00;5114820;28;20044;-69
2022/03/07 08:02:15;;;;;;;34.30;18.42;;;;;;;0.99;60.50;100565.84;5114627;28;20480;-71
2022/03/07 08:04:44;;;;;;;35.10;18.67;;;;;;;0.94;60.66;100576.41;5114808;28;20039;-72
2022/03/07 08:07:12;;;;;;;36.17;18.98;;;;;;;0.97;60.34;100581.63;5114146;28;20042;-72
2022/03/07 08:09:41;;;;;;;36.15;17.92;;;;;;;0.93;60.73;100577.31;5114382;28;20047;-70
2022/03/07 08:12:10;;;;;;;34.17;17.20;;;;;;;0.99;60.52;100584.22;5114405;28;20457;-70
2022/03/07 08:14:38;;;;;;;33.55;17.85;;;;;;;0.94;60.56;100581.66;5112983;28;20051;-70
2022/03/07 08:17:08;;;;;;;35.40;19.48;;;;;;;0.65;61.44;100583.84;5114194;28;20485;-68
2022/03/07 08:19:38;;;;;;;39.35;18.73;;;;;;;0.54;61.97;100577.00;5114520;28;20048;-68
2022/03/07 08:22:07;;;;;;;33.22;17.80;;;;;;;0.44;62.04;100580.66;5114597;28;20496;-69
2022/03/07 08:24:35;;;;;;;33.78;17.05;;;;;;;0.42;62.42;100577.19;5114744;28;20050;-68
2022/03/07 08:27:04;;;;;;;38.10;18.58;;;;;;;0.54;62.15;100581.38;5114289;28;20050;-69
2022/03/07 08:29:35;;;;;;;36.78;19.33;;;;;;;0.48;62.72;100582.38;5114020;28;20047;-68
2022/03/07 08:32:04;;;;;;;32.42;16.67;;;;;;;0.57;62.41;100573.47;5113647;28;20035;-70
2022/03/07 08:34:32;;;;;;;39.47;19.45;;;;;;;0.68;62.20;100563.69;5114045;28;20452;-69
2022/03/07 08:37:02;;;;;;;33.90;17.75;;;;;;;0.98;61.10;100556.22;5113547;28;20062;-70
2022/03/07 08:39:30;;;;;;;30.65;18.15;;;;;;;1.03;60.70;100552.63;5114137;28;20488;-68
2022/03/07 08:41:59;;;;;;;35.28;19.23;;;;;;;0.89;61.19;100536.22;5113777;28;20044;-70
2022/03/07 08:44:27;;;;;;;33.60;18.92;;;;;;;1.19;59.97;100547.13;5113636;28;20048;-68
2022/03/07 08:46:55;;;;;;;38.42;19.80;;;;;;;1.34;60.06;100544.22;5113594;28;20043;-68
2022/03/07 08:49:24;;;;;;;31.52;17.67;;;;;;;1.68;58.74;100547.97;5114055;28;20494;-68
2022/03/07 08:51:52;;;;;;;33.63;17.45;;;;;;;1.60;58.58;100543.75;5113994;28;20043;-69
2022/03/07 08:54:21;;;;;;;34.08;18.00;;;;;;;1.64;58.31;100555.91;5113470;28;20039;-68
2022/03/07 08:56:50;;;;;;;33.92;18.38;;;;;;;1.65;58.51;100555.06;5113544;28;20054;-69
2022/03/07 08:59:18;;;;;;;37.70;19.33;;;;;;;1.87;57.79;100553.72;5113357;28;20035;-70
2022/03/07 09:01:46;;;;;;;31.40;18.17;;;;;;;1.99;57.78;100555.25;5113911;28;20100;-70
2022/03/07 09:04:15;;;;;;;29.33;14.18;;;;;;;1.86;57.07;100557.25;5113306;28;20043;-70
2022/03/07 09:06:43;;;;;;;34.05;17.30;;;;;;;1.76;57.55;100562.72;5113756;28;20044;-70
2022/03/07 09:09:11;;;;;;;33.55;18.02;;;;;;;1.88;57.75;100562.50;5113550;28;20123;-68
2022/03/07 09:12:00;;;;;;;34.72;19.30;;;;;;;1.87;57.87;100550.25;5113771;28;20048;-69
2022/03/07 09:14:29;;;;;;;32.85;18.17;;;;;;;2.00;56.80;100546.44;5113635;28;20134;-69
2022/03/07 09:16:58;;;;;;;35.20;18.60;;;;;;;1.99;56.73;100550.84;5113567;28;20040;-69
2022/03/07 09:19:26;;;;;;;29.55;16.50;;;;;;;1.97;56.71;100552.66;5113500;28;20047;-69
2022/03/07 09:21:55;;;;;;;32.50;17.88;;;;;;;2.12;56.63;100546.19;5113765;28;20551;-69
2022/03/07 09:24:23;;;;;;;34.00;16.90;;;;;;;2.11;56.49;100539.19;5113483;28;20122;-70
2022/03/07 09:26:52;;;;;;;32.72;18.75;;;;;;;2.34;56.06;100551.03;5113602;28;20036;-69
2022/03/07 09:29:24;;;;;;;32.00;18.23;;;;;;;2.35;55.67;100537.81;5113278;28;20219;-69
2022/03/07 09:31:52;;;;;;;35.78;18.10;;;;;;;2.50;55.60;100539.22;5113150;28;20046;-69
2022/03/07 09:34:28;;;;;;;37.28;18.90;;;;;;;2.62;55.06;100541.59;5113217;28;20040;-69
2022/03/07 09:36:56;;;;;;;30.58;16.58;;;;;;;2.44;55.09;100548.16;5113441;28;20048;-69
2022/03/07 09:39:25;;;;;;;36.55;18.95;;;;;;;2.41;55.26;100548.19;5113196;28;20044;-69
2022/03/07 09:41:54;;;;;;;29.92;16.55;;;;;;;2.65;54.87;100541.53;5095119;28;20138;-68
2022/03/07 09:44:23;;;;;;;28.67;14.38;;;;;;;2.37;54.69;100540.41;5113167;28;20540;-70
2022/03/07 09:46:52;;;;;;;32.53;17.50;;;;;;;2.26;55.44;100538.88;5112995;28;20043;-69
2022/03/07 09:49:20;;;;;;;28.98;17.02;;;;;;;2.49;55.04;100540.13;5113165;28;20047;-70
2022/03/07 09:51:49;;;;;;;29.33;16.83;;;;;;;2.40;54.98;100550.88;5117281;28;20402;-69
2022/03/07 09:54:18;;;;;;;37.40;18.00;;;;;;;2.37;55.22;100546.53;5116675;28;20396;-68
2022/03/07 09:56:46;;;;;;;30.63;17.95;;;;;;;2.27;55.30;100545.88;5117234;28;20043;-70
2022/03/07 09:59:17;;;;;;;31.55;17.08;;;;;;;2.30;55.27;100543.16;5116813;28;20050;-70
2022/03/07 10:02:00;;;;;;;32.40;17.58;;;;;;;2.42;54.73;100538.56;5117398;28;20039;-69
2022/03/07 10:04:30;;;;;;;29.50;17.33;;;;;;;2.53;54.42;100547.06;5116993;28;20043;-70
2022/03/07 10:07:04;;;;;;;31.95;16.98;;;;;;;2.69;54.07;100543.16;5117004;28;20039;-70
2022/03/07 10:09:32;;;;;;;33.65;17.17;;;;;;;2.85;53.60;100544.56;5117107;28;20043;-70
2022/03/07 10:12:02;;;;;;;34.78;17.67;;;;;;;2.98;53.07;100539.84;5116954;28;20392;-70
2022/03/07 10:14:34;;;;;;;31.55;16.98;;;;;;;3.03;52.88;100540.59;5116862;28;20067;-69
2022/03/07 10:17:04;;;;;;;32.47;17.40;;;;;;;2.85;53.59;100543.69;5116560;28;20044;-69
2022/03/07 10:19:32;;;;;;;31.02;16.65;;;;;;;2.78;53.65;100548.22;5116806;28;20031;-70
2022/03/07 10:22:01;;;;;;;29.58;16.25;;;;;;;2.73;53.50;100541.34;5116511;28;20066;-70
2022/03/07 10:24:34;;;;;;;32.67;17.25;;;;;;;2.76;53.69;100543.91;5116815;28;20492;-70
2022/03/07 10:27:03;;;;;;;28.53;15.83;;;;;;;2.72;53.68;100542.25;5116805;28;20557;-69
2022/03/07 10:29:31;;;;;;;34.75;17.65;;;;;;;2.79;53.06;100528.88;5116732;28;20435;-69
2022/03/07 10:31:59;;;;;;;31.08;16.95;;;;;;;2.81;53.63;100535.00;5116540;28;20070;-71
2022/03/07 10:34:29;;;;;;;30.38;17.20;;;;;;;2.81;53.78;100531.50;5116106;28;20043;-69
2022/03/07 10:36:58;;;;;;;22.98;13.85;;;;;;;2.86;52.68;100533.09;5116523;28;20092;-70
2022/03/07 10:39:27;;;;;;;27.70;14.60;;;;;;;2.77;52.75;100529.81;5115962;28;20036;-69
2022/03/07 10:41:55;;;;;;;27.38;14.75;;;;;;;2.80;52.61;100524.50;5116551;28;20055;-70
2022/03/07 10:44:29;;;;;;;27.08;14.80;;;;;;;2.62;53.06;100530.19;5115964;28;20399;-70
2022/03/07 10:47:08;;;;;;;27.15;15.40;;;;;;;2.60;52.95;100522.31;5116350;28;20100;-70
2022/03/07 10:49:47;;;;;;;23.60;14.07;;;;;;;2.56;53.10;100528.56;5116589;28;20374;-70
2022/03/07 10:52:16;;;;;;;29.13;14.68;;;;;;;2.50;53.17;100523.44;5116185;28;20032;-70
2022/03/07 10:54:47;;;;;;;28.20;15.25;;;;;;;2.51;53.19;100519.88;5116449;28;20119;-70
2022/03/07 10:57:16;;;;;;;28.85;14.88;;;;;;;2.49;53.37;100516.44;5097994;28;20464;-69
2022/03/07 10:59:45;;;;;;;30.58;16.52;;;;;;;2.66;53.85;100506.38;5097628;28;20385;-69
2022/03/07 11:02:16;;;;;;;31.65;15.70;;;;;;;2.87;52.58;100503.22;5115265;28;20044;-70
2022/03/07 11:04:49;;;;;;;29.50;15.30;;;;;;;3.10;52.03;100501.78;5115861;28;20043;-69
2022/03/07 11:07:17;;;;;;;29.25;16.75;;;;;;;2.94;51.81;100496.03;5115534;28;20047;-70
2022/03/07 11:09:52;;;;;;;26.60;15.75;;;;;;;2.85;52.62;100491.00;5115931;28;20069;-70
2022/03/07 11:12:20;;;;;;;29.48;16.15;;;;;;;3.07;52.32;100491.31;5115523;28;20075;-70
2022/03/07 11:14:50;;;;;;;29.35;15.85;;;;;;;2.89;52.33;100487.38;5115708;28;20048;-70
2022/03/07 11:17:19;;;;;;;28.08;14.43;;;;;;;2.91;52.36;100484.72;5115589;28;20137;-69
2022/03/07 11:19:55;;;;;;;30.65;16.90;;;;;;;2.90;52.20;100485.63;5115579;28;20039;-70
2022/03/07 11:22:24;;;;;;;28.52;16.98;;;;;;;3.00;52.14;100473.94;5115643;28;20142;-69
2022/03/07 11:24:54;;;;;;;29.30;14.50;;;;;;;2.87;52.13;100463.69;5115927;28;20044;-69